Time;durP1;ratioP1;P1;durP2;ratioP2;P2;SDS_P1;SDS_P2;PMS_P1;PMS_P2;Temp;Humidity;BMP_temperature;BMP_pressure;BME280_temperature;BME280_humidity;BME280_pressure;Samples;Min_cycle;Max_cycle;Signal;HPM_P1;HPM_P2
2022/10/15 00:01:28;;;;;;;12.57;12.37;;;14.80;99.90;;;;;;4965630;28;20458;-82
2022/10/15 00:03:56;;;;;;;12.60;12.30;;;14.80;99.90;;;;;;4963139;28;20466;-81
2022/10/15 00:06:24;;;;;;;12.50;12.20;;;14.80;99.90;;;;;;4968849;28;20807;-81
2022/10/15 00:08:54;;;;;;;13.30;12.80;;;14.80;99.90;;;;;;4965135;28;20842;-81
2022/10/15 00:11:24;;;;;;;12.90;12.60;;;14.80;99.90;;;;;;4962932;28;20741;-83
2022/10/15 00:13:54;;;;;;;12.63;12.43;;;14.80;99.90;;;;;;4964736;28;20470;-84
2022/10/15 00:16:25;;;;;;;12.93;12.63;;;14.80;99.90;;;;;;4968274;28;20483;-83
2022/10/15 00:18:55;;;;;;;12.43;12.23;;;14.90;99.90;;;;;;4963902;28;20519;-82
2022/10/15 00:21:23;;;;;;;12.60;12.20;;;14.90;99.90;;;;;;4968059;28;20456;-83
2022/10/15 00:23:51;;;;;;;12.10;11.90;;;14.90;99.90;;;;;;4973035;28;20496;-84
2022/10/15 00:26:23;;;;;;;12.00;11.80;;;14.90;99.90;;;;;;4964885;28;20449;-82
2022/10/15 00:28:53;;;;;;;12.20;12.00;;;14.90;99.90;;;;;;4963865;28;20888;-82
2022/10/15 00:31:23;;;;;;;12.43;12.23;;;14.90;99.90;;;;;;4964042;28;20457;-82
2022/10/15 00:33:52;;;;;;;12.27;12.07;;;14.90;99.90;;;;;;4963230;28;20535;-83
2022/10/15 00:36:22;;;;;;;12.20;12.00;;;15.00;99.90;;;;;;4965798;28;21276;-83
2022/10/15 00:38:50;;;;;;;12.53;12.33;;;15.00;99.90;;;;;;4964881;28;21333;-83
2022/10/15 00:41:23;;;;;;;12.60;12.40;;;15.00;99.90;;;;;;4967338;28;20500;-84
2022/10/15 00:43:53;;;;;;;12.90;12.50;;;14.90;99.90;;;;;;4965718;28;20475;-82
2022/10/15 00:46:25;;;;;;;12.10;11.90;;;15.00;99.90;;;;;;4977543;28;20488;-83
2022/10/15 00:48:57;;;;;;;12.40;12.00;;;14.90;99.90;;;;;;4966527;28;20557;-83
2022/10/15 00:51:29;;;;;;;12.83;12.53;;;15.00;99.90;;;;;;4965119;28;20458;-84
2022/10/15 00:53:58;;;;;;;13.13;12.40;;;14.90;99.90;;;;;;4963535;28;20509;-83
2022/10/15 00:56:30;;;;;;;13.20;12.90;;;14.90;99.90;;;;;;4974283;28;20486;-83
2022/10/15 00:58:58;;;;;;;13.20;12.90;;;14.90;99.90;;;;;;4965347;28;20574;-82
2022/10/15 01:01:27;;;;;;;13.30;13.00;;;14.90;99.90;;;;;;4970273;28;20474;-84
2022/10/15 01:03:56;;;;;;;13.20;12.93;;;14.90;99.90;;;;;;4968815;28;20463;-83
2022/10/15 01:06:25;;;;;;;13.30;13.00;;;14.80;99.90;;;;;;4970477;28;21156;-82
2022/10/15 01:08:54;;;;;;;13.50;13.20;;;14.80;99.90;;;;;;4959803;28;20531;-84
2022/10/15 01:11:37;;;;;;;13.50;13.20;;;14.80;99.90;;;;;;4962244;28;20486;-82
2022/10/15 01:14:18;;;;;;;13.60;13.27;;;14.80;99.90;;;;;;4963141;28;20465;-83
2022/10/15 01:16:50;;;;;;;13.60;13.30;;;14.90;99.90;;;;;;4963812;28;20456;-82
2022/10/15 01:19:37;;;;;;;13.70;13.40;;;14.90;99.90;;;;;;4962064;28;20515;-83
2022/10/15 01:22:09;;;;;;;13.20;12.80;;;14.90;99.90;;;;;;4968583;28;20458;-81
2022/10/15 01:24:48;;;;;;;13.40;13.10;;;15.00;99.90;;;;;;4962475;28;20467;-83
2022/10/15 01:27:32;;;;;;;13.60;13.20;;;14.90;99.90;;;;;;4963410;28;20479;-83
2022/10/15 01:30:21;;;;;;;13.23;12.93;;;14.90;99.90;;;;;;4965791;28;21020;-84
2022/10/15 01:33:04;;;;;;;13.40;13.20;;;14.90;99.90;;;;;;4967797;28;20521;-83
2022/10/15 01:35:41;;;;;;;13.40;13.10;;;14.90;99.90;;;;;;4960550;28;20475;-84
2022/10/15 01:38:20;;;;;;;13.33;13.03;;;14.90;99.90;;;;;;4963073;28;20978;-84
2022/10/15 01:40:54;;;;;;;13.27;13.07;;;14.90;99.90;;;;;;4961247;28;20514;-84
2022/10/15 01:43:29;;;;;;;13.30;12.97;;;15.00;99.90;;;;;;4965493;28;20457;-82
2022/10/15 01:46:03;;;;;;;13.60;13.30;;;15.00;99.90;;;;;;4946664;28;20548;-83
2022/10/15 01:48:34;;;;;;;13.60;13.30;;;15.00;99.90;;;;;;4964549;28;20483;-85
2022/10/15 01:51:06;;;;;;;13.50;13.20;;;14.90;99.90;;;;;;4961437;28;20455;-83
2022/10/15 01:53:36;;;;;;;13.50;13.20;;;14.90;99.90;;;;;;4946969;28;20464;-84
2022/10/15 01:56:08;;;;;;;14.00;13.60;;;14.90;99.90;;;;;;4966065;28;20491;-84
2022/10/15 01:58:39;;;;;;;13.83;13.53;;;14.90;99.90;;;;;;4968120;28;20502;-84
2022/10/15 02:01:09;;;;;;;13.70;13.40;;;14.90;99.90;;;;;;4971765;28;20478;-84
2022/10/15 02:03:48;;;;;;;13.73;13.40;;;14.90;99.90;;;;;;4968958;28;20553;-83
2022/10/15 02:06:22;;;;;;;14.00;13.70;;;14.90;99.90;;;;;;4971658;28;20510;-82
2022/10/15 02:09:01;;;;;;;13.80;13.50;;;14.90;99.90;;;;;;4971430;28;20548;-83
2022/10/15 02:11:33;;;;;;;13.60;13.30;;;14.90;99.90;;;;;;4960135;28;20542;-83
2022/10/15 02:14:08;;;;;;;14.17;13.80;;;15.00;99.90;;;;;;4968828;28;20465;-82
2022/10/15 02:16:43;;;;;;;14.10;13.80;;;15.00;99.90;;;;;;4964176;28;20463;-83
2022/10/15 02:19:17;;;;;;;14.80;14.40;;;14.90;99.90;;;;;;4967616;28;20542;-83
2022/10/15 02:21:51;;;;;;;13.80;13.50;;;15.00;99.90;;;;;;4966954;28;20486;-83
2022/10/15 02:24:23;;;;;;;13.60;13.30;;;15.00;99.90;;;;;;4970447;28;20519;-82
2022/10/15 02:26:54;;;;;;;13.93;13.63;;;15.10;99.90;;;;;;4972522;28;20455;-82
2022/10/15 02:29:25;;;;;;;13.90;13.40;;;15.10;99.90;;;;;;4967942;28;20472;-82
2022/10/15 02:31:57;;;;;;;13.80;13.50;;;15.10;99.90;;;;;;4968173;28;20503;-83
2022/10/15 02:34:29;;;;;;;14.70;14.00;;;15.10;99.90;;;;;;4965536;28;20992;-82
2022/10/15 02:37:01;;;;;;;14.37;14.03;;;15.10;99.90;;;;;;4965130;28;20522;-83
2022/10/15 02:39:29;;;;;;;13.83;13.53;;;15.10;99.90;;;;;;4972469;28;20475;-83
2022/10/15 02:41:58;;;;;;;14.30;13.90;;;15.10;99.90;;;;;;4974906;28;20822;-83
2022/10/15 02:44:26;;;;;;;13.90;13.60;;;15.20;99.90;;;;;;4974941;28;20447;-82
2022/10/15 02:46:56;;;;;;;13.90;13.60;;;15.10;99.90;;;;;;4971328;28;20455;-82
2022/10/15 02:49:24;;;;;;;13.70;13.40;;;15.20;99.90;;;;;;4973148;28;20482;-83
2022/10/15 02:51:52;;;;;;;14.00;13.70;;;15.20;99.90;;;;;;4975291;28;20450;-82
2022/10/15 02:54:20;;;;;;;14.13;13.83;;;15.20;99.90;;;;;;4964351;28;20455;-83
2022/10/15 02:56:48;;;;;;;14.23;13.80;;;15.20;99.90;;;;;;4973052;28;20448;-83
2022/10/15 02:59:17;;;;;;;14.40;14.10;;;15.20;99.90;;;;;;4968951;28;20463;-83
2022/10/15 03:01:45;;;;;;;14.40;14.10;;;15.30;99.90;;;;;;4970938;28;20487;-83
2022/10/15 03:04:15;;;;;;;14.20;13.90;;;15.30;99.90;;;;;;4970015;28;20463;-82
2022/10/15 03:06:43;;;;;;;14.60;14.20;;;15.30;99.90;;;;;;4968571;28;20462;-83
2022/10/15 03:09:11;;;;;;;15.00;14.60;;;15.30;99.90;;;;;;4966955;28;20500;-83
2022/10/15 03:11:39;;;;;;;14.90;14.50;;;15.30;99.90;;;;;;4966587;28;20476;-84
2022/10/15 03:14:07;;;;;;;16.30;15.70;;;15.30;99.90;;;;;;4956130;28;20538;-84
2022/10/15 03:16:35;;;;;;;15.67;14.83;;;15.30;99.90;;;;;;4966799;28;21226;-83
2022/10/15 03:19:03;;;;;;;14.83;14.53;;;15.30;99.90;;;;;;4964280;28;20514;-82
2022/10/15 03:21:33;;;;;;;15.20;14.70;;;15.40;99.90;;;;;;4960217;28;21288;-83
2022/10/15 03:24:01;;;;;;;14.80;14.40;;;15.40;99.90;;;;;;4955882;28;20474;-83
2022/10/15 03:26:29;;;;;;;14.90;14.60;;;15.40;99.90;;;;;;4969948;28;21031;-84
2022/10/15 03:28:57;;;;;;;14.77;14.40;;;15.40;99.90;;;;;;4962428;28;20499;-83
2022/10/15 03:31:25;;;;;;;14.40;14.10;;;15.40;99.90;;;;;;4968324;28;20898;-82
2022/10/15 03:33:53;;;;;;;14.70;14.40;;;15.30;99.90;;;;;;4968605;28;20466;-84
2022/10/15 03:36:21;;;;;;;14.93;14.60;;;15.30;99.90;;;;;;4966982;28;20553;-83
2022/10/15 03:38:51;;;;;;;14.70;14.40;;;15.40;99.90;;;;;;4964053;28;20476;-83
2022/10/15 03:41:20;;;;;;;14.70;14.30;;;15.40;99.90;;;;;;4965736;28;20490;-83
2022/10/15 03:43:49;;;;;;;14.97;14.60;;;15.40;99.90;;;;;;4970501;28;20455;-83
2022/10/15 03:46:17;;;;;;;14.80;14.40;;;15.40;99.90;;;;;;4969445;28;20529;-83
2022/10/15 03:48:48;;;;;;;14.80;14.50;;;15.40;99.90;;;;;;4949408;28;20480;-83
2022/10/15 03:51:16;;;;;;;15.00;14.60;;;15.50;99.90;;;;;;4965932;28;20440;-82
2022/10/15 03:53:53;;;;;;;15.20;14.80;;;15.50;99.90;;;;;;4962281;28;20455;-84
2022/10/15 03:56:21;;;;;;;15.30;14.90;;;15.40;99.90;;;;;;4964630;28;20463;-84
2022/10/15 03:58:49;;;;;;;15.00;14.70;;;15.50;99.90;;;;;;4949097;28;20878;-84
2022/10/15 04:01:18;;;;;;;15.00;14.70;;;15.40;99.90;;;;;;4945276;28;20592;-84
2022/10/15 04:03:47;;;;;;;15.37;14.83;;;15.50;99.90;;;;;;4946422;28;20471;-83
2022/10/15 04:06:15;;;;;;;14.60;14.30;;;15.50;99.90;;;;;;4964085;28;20572;-84
2022/10/15 04:08:43;;;;;;;14.40;14.10;;;15.50;99.90;;;;;;4965225;28;20534;-83
2022/10/15 04:11:12;;;;;;;14.50;14.20;;;15.50;99.90;;;;;;4963923;28;20651;-83
2022/10/15 04:13:40;;;;;;;15.27;14.67;;;15.40;99.90;;;;;;4963341;28;20496;-84
2022/10/15 04:16:08;;;;;;;15.00;14.63;;;15.40;99.90;;;;;;4954665;28;20802;-83
2022/10/15 04:18:36;;;;;;;14.97;14.57;;;15.40;99.90;;;;;;4965894;28;20562;-83
2022/10/15 04:21:04;;;;;;;14.60;14.30;;;15.50;99.90;;;;;;4960572;28;20465;-84
2022/10/15 04:23:32;;;;;;;14.80;14.50;;;15.50;99.90;;;;;;4969186;28;20485;-83
2022/10/15 04:26:01;;;;;;;14.80;14.50;;;15.50;99.90;;;;;;4967728;28;20515;-83
2022/10/15 04:28:30;;;;;;;14.80;14.50;;;15.50;99.90;;;;;;4963730;28;22147;-83
2022/10/15 04:30:59;;;;;;;15.50;15.10;;;15.50;99.90;;;;;;4958713;28;20488;-82
2022/10/15 04:33:28;;;;;;;15.20;14.80;;;15.50;99.90;;;;;;4971869;28;20475;-83
2022/10/15 04:36:00;;;;;;;15.20;14.80;;;15.50;99.90;;;;;;4965256;28;20629;-82
2022/10/15 04:38:29;;;;;;;15.43;14.93;;;15.50;99.90;;;;;;4947830;28;20500;-82
2022/10/15 04:41:02;;;;;;;15.20;14.80;;;15.50;99.90;;;;;;4965218;28;20461;-83
2022/10/15 04:43:31;;;;;;;15.10;14.70;;;15.50;99.90;;;;;;4969026;28;20467;-83
2022/10/15 04:46:01;;;;;;;15.13;14.80;;;15.50;99.90;;;;;;4966629;28;20957;-83
2022/10/15 04:48:31;;;;;;;15.43;15.03;;;15.50;99.90;;;;;;4961912;28;20841;-83
2022/10/15 04:51:04;;;;;;;14.50;14.20;;;15.40;99.90;;;;;;4965975;28;21307;-83
2022/10/15 04:53:32;;;;;;;14.70;14.40;;;15.40;99.90;;;;;;4962363;28;20497;-83
2022/10/15 04:56:02;;;;;;;14.70;14.30;;;15.40;99.90;;;;;;4966640;28;20520;-83
2022/10/15 04:58:34;;;;;;;15.13;14.77;;;15.40;99.90;;;;;;4969884;28;20474;-82
2022/10/15 05:01:03;;;;;;;15.20;14.80;;;15.40;99.90;;;;;;4964456;28;20471;-82
2022/10/15 05:03:32;;;;;;;15.10;14.70;;;15.40;99.90;;;;;;4970470;28;21608;-82
2022/10/15 05:06:07;;;;;;;15.07;14.67;;;15.40;99.90;;;;;;4969129;28;20923;-83
2022/10/15 05:08:36;;;;;;;14.90;14.50;;;15.40;99.90;;;;;;4944787;28;20494;-83
2022/10/15 05:11:07;;;;;;;14.90;14.60;;;15.40;99.90;;;;;;4962752;28;20460;-84
2022/10/15 05:13:37;;;;;;;15.10;14.70;;;15.40;99.90;;;;;;4964582;28;20464;-81
2022/10/15 05:16:13;;;;;;;14.50;14.20;;;15.40;99.90;;;;;;4960097;28;20457;-84
2022/10/15 05:18:42;;;;;;;14.83;14.40;;;15.40;99.90;;;;;;4959766;28;20584;-83
2022/10/15 05:21:10;;;;;;;15.10;14.70;;;15.40;99.90;;;;;;4967722;28;20592;-84
2022/10/15 05:23:39;;;;;;;14.60;14.30;;;15.50;99.90;;;;;;4962835;28;20518;-82
2022/10/15 05:26:08;;;;;;;14.90;14.50;;;15.40;99.90;;;;;;4962953;28;20457;-82
2022/10/15 05:28:38;;;;;;;15.20;14.70;;;15.50;99.90;;;;;;4963261;28;20482;-82
2022/10/15 05:31:07;;;;;;;14.90;14.50;;;15.40;99.90;;;;;;4965576;28;20463;-81
2022/10/15 05:33:36;;;;;;;15.13;14.70;;;15.50;99.90;;;;;;4959956;28;20466;-82
2022/10/15 05:36:11;;;;;;;14.70;14.30;;;15.50;99.90;;;;;;4963558;28;20448;-84
2022/10/15 05:38:39;;;;;;;14.80;14.40;;;15.50;99.90;;;;;;4959199;28;20478;-84
2022/10/15 05:41:07;;;;;;;14.90;14.50;;;15.50;99.90;;;;;;4960668;28;20482;-83
2022/10/15 05:43:35;;;;;;;14.90;14.40;;;15.50;99.90;;;;;;4963702;28;21252;-82
2022/10/15 05:46:09;;;;;;;14.87;14.57;;;15.50;99.90;;;;;;4967465;28;20489;-84
2022/10/15 05:48:37;;;;;;;15.50;14.90;;;15.50;99.90;;;;;;4959958;28;20483;-83
2022/10/15 05:51:08;;;;;;;14.80;14.40;;;15.50;99.90;;;;;;4963354;28;20521;-83
2022/10/15 05:53:36;;;;;;;15.40;14.90;;;15.60;99.90;;;;;;4961594;28;20548;-83
2022/10/15 05:56:06;;;;;;;15.00;14.60;;;15.50;99.90;;;;;;4960293;28;20464;-82
2022/10/15 05:58:36;;;;;;;14.63;14.30;;;15.50;99.90;;;;;;4959734;28;20877;-84
2022/10/15 06:01:06;;;;;;;14.60;14.30;;;15.40;99.90;;;;;;4956705;28;20479;-84
2022/10/15 06:03:37;;;;;;;14.97;14.67;;;15.40;99.90;;;;;;4957655;28;20487;-82
2022/10/15 06:06:05;;;;;;;15.33;14.70;;;15.40;99.90;;;;;;4960318;28;20842;-83
2022/10/15 06:08:33;;;;;;;14.90;14.50;;;15.30;99.90;;;;;;4965108;28;20518;-84
2022/10/15 06:11:04;;;;;;;14.80;14.50;;;15.30;99.90;;;;;;4952591;28;20483;-83
2022/10/15 06:13:38;;;;;;;14.47;14.17;;;15.40;99.90;;;;;;4956506;28;20451;-84
2022/10/15 06:16:06;;;;;;;14.90;14.50;;;15.30;99.90;;;;;;4958430;28;20459;-85
2022/10/15 06:18:37;;;;;;;14.93;14.30;;;15.30;99.90;;;;;;4966617;28;22042;-86
2022/10/15 06:21:06;;;;;;;14.73;14.33;;;15.30;99.90;;;;;;4958118;28;22414;-85
2022/10/15 06:23:35;;;;;;;14.73;14.23;;;15.30;99.90;;;;;;4955759;28;20847;-86
2022/10/15 06:26:04;;;;;;;14.80;14.40;;;15.30;97.60;;;;;;4958743;28;21205;-86
2022/10/15 06:28:35;;;;;;;15.20;14.80;;;15.30;98.40;;;;;;4957995;28;20657;-86
2022/10/15 06:31:04;;;;;;;14.40;14.10;;;15.30;95.10;;;;;;4959698;28;20492;-86
2022/10/15 06:33:33;;;;;;;14.80;14.30;;;15.40;95.70;;;;;;4954516;28;20513;-84
2022/10/15 06:36:04;;;;;;;14.90;14.50;;;15.40;90.40;;;;;;4948264;28;20470;-84
2022/10/15 06:38:32;;;;;;;14.53;14.20;;;15.40;88.80;;;;;;4957948;28;20490;-85
2022/10/15 06:41:03;;;;;;;14.90;14.50;;;15.40;87.70;;;;;;4963148;28;20495;-84
2022/10/15 06:43:31;;;;;;;14.43;14.10;;;15.40;80.20;;;;;;4950223;28;20483;-84
2022/10/15 06:46:04;;;;;;;14.80;14.40;;;15.40;79.40;;;;;;4961684;28;20787;-84
2022/10/15 06:48:32;;;;;;;14.60;14.27;;;15.40;80.30;;;;;;4948252;28;20907;-83
2022/10/15 06:51:01;;;;;;;14.70;14.30;;;15.40;72.70;;;;;;4946293;28;20902;-84
2022/10/15 06:53:31;;;;;;;14.60;14.30;;;15.40;67.80;;;;;;4963446;28;20563;-84
2022/10/15 06:56:01;;;;;;;14.67;14.27;;;15.40;80.90;;;;;;4940121;28;20930;-83
2022/10/15 06:58:30;;;;;;;14.73;14.33;;;15.40;71.00;;;;;;4959905;28;20483;-84
2022/10/15 07:01:01;;;;;;;14.40;14.00;;;15.40;63.80;;;;;;4959047;28;20467;-82
2022/10/15 07:03:29;;;;;;;14.97;14.57;;;15.40;69.10;;;;;;4938135;28;21029;-83
2022/10/15 07:06:02;;;;;;;14.47;14.07;;;15.50;56.00;;;;;;4959173;28;20451;-82
2022/10/15 07:08:32;;;;;;;14.90;14.50;;;15.50;58.60;;;;;;4941437;28;21080;-83
2022/10/15 07:11:02;;;;;;;14.67;14.30;;;15.50;55.20;;;;;;4957075;28;20471;-83
2022/10/15 07:13:30;;;;;;;15.07;14.67;;;15.50;60.30;;;;;;4958474;28;20445;-83
2022/10/15 07:16:02;;;;;;;14.60;14.20;;;15.50;58.60;;;;;;4956654;28;20987;-83
2022/10/15 07:18:31;;;;;;;15.27;14.63;;;15.40;61.80;;;;;;4955421;28;20478;-82
2022/10/15 07:21:00;;;;;;;15.23;14.80;;;15.40;75.40;;;;;;4954027;28;20587;-83
2022/10/15 07:23:28;;;;;;;15.00;14.50;;;15.50;66.20;;;;;;4959019;28;20478;-82
2022/10/15 07:25:59;;;;;;;14.97;14.57;;;15.60;63.10;;;;;;4946510;28;20459;-82
2022/10/15 07:28:28;;;;;;;15.40;14.90;;;15.50;52.00;;;;;;4963785;28;20487;-83
2022/10/15 07:31:00;;;;;;;15.00;14.40;;;15.50;59.30;;;;;;4960628;28;20452;-83
2022/10/15 07:33:29;;;;;;;15.30;14.80;;;15.50;66.50;;;;;;4961465;28;20544;-81
2022/10/15 07:35:57;;;;;;;15.30;14.80;;;15.60;63.80;;;;;;4942382;28;20978;-83
2022/10/15 07:38:25;;;;;;;15.53;15.00;;;15.50;77.70;;;;;;4964012;28;20489;-82
2022/10/15 07:40:57;;;;;;;14.77;14.47;;;15.60;73.90;;;;;;4962729;28;20468;-82
2022/10/15 07:43:26;;;;;;;14.53;14.23;;;15.50;72.30;;;;;;4963956;28;20481;-81
2022/10/15 07:45:55;;;;;;;14.30;13.90;;;15.60;70.80;;;;;;4961541;28;20472;-82
2022/10/15 07:48:23;;;;;;;15.00;14.50;;;15.60;85.10;;;;;;4963480;28;20940;-81
2022/10/15 07:50:55;;;;;;;15.07;14.67;;;15.70;88.70;;;;;;4963283;28;21649;-83
2022/10/15 07:53:23;;;;;;;15.23;14.70;;;15.70;87.40;;;;;;4961227;28;20462;-85
2022/10/15 07:55:51;;;;;;;15.07;14.57;;;15.60;92.90;;;;;;4955693;28;20455;-82
2022/10/15 07:58:19;;;;;;;14.80;14.50;;;15.60;99.40;;;;;;4958759;28;20541;-82
2022/10/15 08:00:49;;;;;;;15.10;14.50;;;15.70;99.90;;;;;;4963929;28;20471;-81
2022/10/15 08:03:17;;;;;;;14.57;14.00;;;15.70;98.00;;;;;;4965249;28;20464;-82
2022/10/15 08:05:45;;;;;;;14.10;13.80;;;15.70;99.90;;;;;;4965813;28;20844;-81
2022/10/15 08:08:13;;;;;;;15.23;14.73;;;15.70;99.90;;;;;;4967439;28;20543;-81
2022/10/15 08:10:41;;;;;;;14.77;14.37;;;15.60;99.90;;;;;;4967926;28;21189;-82
2022/10/15 08:13:09;;;;;;;14.30;14.00;;;15.60;99.90;;;;;;4963740;28;20903;-83
2022/10/15 08:15:39;;;;;;;14.37;14.07;;;15.60;99.90;;;;;;4951742;28;21018;-82
2022/10/15 08:18:10;;;;;;;14.67;14.27;;;15.60;99.90;;;;;;4964980;28;20464;-83
2022/10/15 08:20:38;;;;;;;15.10;14.70;;;15.60;99.90;;;;;;4963033;28;21158;-83
2022/10/15 08:23:14;;;;;;;15.43;15.03;;;15.60;99.90;;;;;;4964999;28;20482;-83
2022/10/15 08:25:43;;;;;;;15.50;15.10;;;15.60;99.90;;;;;;4961910;28;20536;-82
2022/10/15 08:28:11;;;;;;;14.87;14.57;;;15.60;99.90;;;;;;4965350;28;20973;-80
2022/10/15 08:30:39;;;;;;;16.47;15.87;;;15.70;99.90;;;;;;4968953;28;20476;-82
2022/10/15 08:33:09;;;;;;;15.23;14.83;;;15.70;99.90;;;;;;4962467;28;20991;-82
2022/10/15 08:35:42;;;;;;;14.73;14.33;;;15.80;99.90;;;;;;4955118;28;20989;-82
2022/10/15 08:38:10;;;;;;;14.93;14.53;;;15.80;99.90;;;;;;4968372;28;20453;-83
2022/10/15 08:40:47;;;;;;;15.90;15.40;;;15.80;99.90;;;;;;4970018;28;21201;-82
2022/10/15 08:43:22;;;;;;;16.10;15.60;;;15.90;99.90;;;;;;4966578;28;20466;-83
2022/10/15 08:45:54;;;;;;;15.60;15.20;;;16.00;99.90;;;;;;4965878;28;21015;-82
2022/10/15 08:48:30;;;;;;;16.17;15.57;;;16.00;99.90;;;;;;4966080;28;20547;-82
2022/10/15 08:51:03;;;;;;;15.70;15.20;;;16.10;99.90;;;;;;4966707;28;20466;-82
2022/10/15 08:53:37;;;;;;;15.70;15.30;;;16.10;99.90;;;;;;4962216;28;20550;-83
2022/10/15 08:56:14;;;;;;;15.83;15.43;;;16.00;99.90;;;;;;4946940;28;21030;-82
2022/10/15 08:58:49;;;;;;;15.90;15.50;;;16.10;99.90;;;;;;4943120;28;20547;-82
2022/10/15 09:01:26;;;;;;;15.40;15.00;;;16.10;99.90;;;;;;4965678;28;20477;-82
2022/10/15 09:04:07;;;;;;;15.27;14.77;;;16.00;99.90;;;;;;4961502;28;20472;-82
2022/10/15 09:06:37;;;;;;;15.20;14.80;;;16.00;99.90;;;;;;4960566;28;20444;-81
2022/10/15 09:09:11;;;;;;;15.90;15.40;;;16.00;99.90;;;;;;4955715;28;20842;-80
2022/10/15 09:11:50;;;;;;;15.47;15.00;;;16.10;99.90;;;;;;4954372;28;20449;-81
2022/10/15 09:14:22;;;;;;;16.03;15.43;;;16.10;99.90;;;;;;4955623;28;20455;-81
2022/10/15 09:16:50;;;;;;;15.20;14.70;;;16.10;99.90;;;;;;4956314;28;20456;-82
2022/10/15 09:19:23;;;;;;;15.53;15.13;;;16.20;99.90;;;;;;4958335;28;20540;-82
2022/10/15 09:21:52;;;;;;;14.93;14.50;;;16.30;99.90;;;;;;4958355;28;20458;-81
2022/10/15 09:24:23;;;;;;;14.80;14.40;;;16.30;99.90;;;;;;4958664;28;20495;-82
2022/10/15 09:27:03;;;;;;;15.40;14.80;;;16.30;99.90;;;;;;4963693;28;20456;-81
2022/10/15 09:29:35;;;;;;;15.40;14.90;;;16.30;99.90;;;;;;4949487;28;20488;-81
2022/10/15 09:32:13;;;;;;;16.70;16.10;;;16.60;99.90;;;;;;4965006;28;20576;-81
2022/10/15 09:34:48;;;;;;;17.20;16.70;;;17.10;62.10;;;;;;4962286;28;20825;-82
2022/10/15 09:37:23;;;;;;;17.60;16.70;;;18.00;1.50;;;;;;4950018;28;20477;-82
2022/10/15 09:40:07;;;;;;;18.10;17.40;;;19.00;1.00;;;;;;4967386;28;20489;-82
2022/10/15 09:42:38;;;;;;;17.23;16.73;;;19.60;99.90;;;;;;4959857;28;21153;-83
2022/10/15 09:45:11;;;;;;;17.30;16.70;;;20.30;99.90;;;;;;4970415;28;20533;-81
2022/10/15 09:47:41;;;;;;;16.90;16.40;;;20.50;99.90;;;;;;4960412;28;20459;-82
2022/10/15 09:50:13;;;;;;;16.80;16.30;;;20.20;99.90;;;;;;4965623;28;20589;-82
2022/10/15 09:53:05;;;;;;;17.10;16.60;;;20.00;99.90;;;;;;4967174;28;20461;-82
2022/10/15 09:55:42;;;;;;;17.30;16.70;;;20.20;54.20;;;;;;4963966;28;20447;-82
2022/10/15 09:58:15;;;;;;;17.50;16.90;;;20.70;99.90;;;;;;4962993;28;21127;-82
2022/10/15 10:00:59;;;;;;;17.10;16.60;;;22.00;1.00;;;;;;4962707;28;20466;-82
2022/10/15 10:03:29;;;;;;;16.97;16.37;;;23.20;99.90;;;;;;4960203;28;20451;-82
2022/10/15 10:06:05;;;;;;;16.20;15.70;;;24.30;1.00;;;;;;4958076;28;20562;-83
2022/10/15 10:08:37;;;;;;;15.63;15.23;;;24.70;1.00;;;;;;4961310;28;20847;-83
2022/10/15 10:11:08;;;;;;;15.47;15.00;;;25.10;1.00;;;;;;4960022;28;20452;-83
2022/10/15 10:13:41;;;;;;;15.00;14.60;;;25.30;99.90;;;;;;4939952;28;20472;-82
2022/10/15 10:16:11;;;;;;;15.40;14.90;;;23.70;1.00;;;;;;4964626;28;20454;-83
2022/10/15 10:18:41;;;;;;;14.90;14.50;;;24.60;1.00;;;;;;4962552;28;20479;-83
2022/10/15 10:21:25;;;;;;;14.40;14.00;;;22.50;1.00;;;;;;4957179;28;20471;-82
2022/10/15 10:23:53;;;;;;;14.77;14.20;;;21.90;1.00;;;;;;4963054;28;20759;-83
2022/10/15 10:26:21;;;;;;;15.13;14.70;;;22.90;1.00;;;;;;4942928;28;20471;-82
2022/10/15 10:28:52;;;;;;;13.80;13.50;;;22.90;1.00;;;;;;4960353;28;20938;-83
2022/10/15 10:31:30;;;;;;;14.40;14.10;;;22.30;52.70;;;;;;4956095;28;20530;-82
2022/10/15 10:34:01;;;;;;;15.20;14.67;;;21.10;99.90;;;;;;4963782;28;20997;-82
2022/10/15 10:36:33;;;;;;;14.70;14.30;;;23.80;10.50;;;;;;4944259;28;20470;-83
2022/10/15 10:39:03;;;;;;;13.40;13.10;;;24.10;1.00;;;;;;4948238;28;20521;-82
2022/10/15 10:41:51;;;;;;;12.93;12.63;;;22.70;1.00;;;;;;4964532;28;20491;-82
2022/10/15 10:44:22;;;;;;;13.67;13.37;;;22.60;1.00;;;;;;4963267;28;20845;-84
2022/10/15 10:47:14;;;;;;;12.87;12.57;;;25.00;1.00;;;;;;4963584;28;20486;-83
2022/10/15 10:49:44;;;;;;;11.60;11.40;;;23.90;99.90;;;;;;4960806;28;21029;-82
2022/10/15 10:52:26;;;;;;;10.53;10.13;;;23.10;1.00;;;;;;4964429;28;20460;-82
2022/10/15 10:55:00;;;;;;;10.67;10.47;;;21.80;1.00;;;;;;4958298;28;20551;-81
2022/10/15 10:57:39;;;;;;;10.90;10.70;;;21.00;99.90;;;;;;4943119;28;20471;-81
2022/10/15 11:00:12;;;;;;;10.90;10.70;;;20.50;99.90;;;;;;4958870;28;20894;-81
2022/10/15 11:02:42;;;;;;;11.10;10.80;;;20.20;99.60;;;;;;4961709;28;20463;-80
2022/10/15 11:05:11;;;;;;;10.40;10.20;;;20.00;1.00;;;;;;4945821;28;20482;-81
2022/10/15 11:07:49;;;;;;;10.50;10.07;;;19.70;99.90;;;;;;4967012;28;20505;-82
2022/10/15 11:10:23;;;;;;;10.27;9.87;;;19.60;1.00;;;;;;4968692;28;20470;-80
2022/10/15 11:13:07;;;;;;;10.10;9.57;;;19.60;1.00;;;;;;4961601;28;20493;-81
2022/10/15 11:15:45;;;;;;;9.30;9.00;;;19.40;1.00;;;;;;4967783;28;20808;-82
2022/10/15 11:18:35;;;;;;;8.50;8.20;;;19.30;15.80;;;;;;4958663;28;21078;-81
2022/10/15 11:21:17;;;;;;;8.57;8.37;;;19.00;1.00;;;;;;4961701;28;20485;-82
2022/10/15 11:24:04;;;;;;;8.53;8.33;;;18.70;1.00;;;;;;4966303;28;20455;-82
2022/10/15 11:26:52;;;;;;;8.83;8.53;;;18.70;99.90;;;;;;4965488;28;20486;-81
2022/10/15 11:29:45;;;;;;;8.80;8.60;;;18.80;99.90;;;;;;4942076;28;20476;-83
2022/10/15 11:32:22;;;;;;;8.90;8.60;;;18.60;99.90;;;;;;4962740;28;20490;-82
2022/10/15 11:35:10;;;;;;;8.30;8.10;;;18.60;99.90;;;;;;4965840;28;21017;-83
2022/10/15 11:38:02;;;;;;;8.10;7.80;;;18.60;99.90;;;;;;4958585;28;20460;-82
2022/10/15 11:40:40;;;;;;;8.40;8.10;;;18.50;99.90;;;;;;4964305;28;20962;-83
2022/10/15 11:43:17;;;;;;;8.43;8.13;;;18.40;99.90;;;;;;4966837;28;20458;-85
2022/10/15 11:46:00;;;;;;;8.00;7.80;;;18.60;1.00;;;;;;4966676;28;20482;-83
2022/10/15 11:48:45;;;;;;;8.13;8.03;;;18.60;99.90;;;;;;4962186;28;20539;-84
2022/10/15 11:51:23;;;;;;;8.20;8.00;;;18.60;1.00;;;;;;4958515;28;20473;-83
2022/10/15 11:54:05;;;;;;;7.60;7.40;;;18.70;1.00;;;;;;4967478;28;21065;-84
2022/10/15 11:56:39;;;;;;;7.60;7.40;;;18.80;1.00;;;;;;4963518;28;20470;-83
2022/10/15 11:59:18;;;;;;;8.53;8.20;;;18.90;99.90;;;;;;4961999;28;20479;-83
2022/10/15 12:01:50;;;;;;;8.53;7.70;;;19.10;1.00;;;;;;4962936;28;20454;-83
2022/10/15 12:04:30;;;;;;;8.10;7.73;;;19.40;99.90;;;;;;4967100;28;20459;-83
2022/10/15 12:07:02;;;;;;;6.93;6.73;;;19.40;99.90;;;;;;4975428;28;20544;-82
2022/10/15 12:09:34;;;;;;;6.90;6.67;;;19.20;99.90;;;;;;4964352;28;21065;-83
2022/10/15 12:12:11;;;;;;;6.90;6.70;;;19.00;1.00;;;;;;4967153;28;20474;-83
2022/10/15 12:14:45;;;;;;;7.03;6.40;;;18.90;99.90;;;;;;4961196;28;20465;-89
2022/10/15 12:17:21;;;;;;;6.77;6.57;;;18.70;1.00;;;;;;4958459;28;20954;-86
2022/10/15 12:19:54;;;;;;;6.40;6.30;;;18.60;1.00;;;;;;4962114;28;20526;-81
2022/10/15 12:22:34;;;;;;;7.20;7.00;;;18.60;1.00;;;;;;4964273;28;20472;-81
2022/10/15 12:25:04;;;;;;;7.43;7.27;;;18.50;99.90;;;;;;4942865;28;20481;-80
2022/10/15 12:27:36;;;;;;;7.80;7.60;;;18.50;99.90;;;;;;4967155;28;20830;-82
2022/10/15 12:30:23;;;;;;;8.00;7.80;;;18.30;99.90;;;;;;4960303;28;20495;-83
2022/10/15 12:32:52;;;;;;;8.63;8.43;;;18.40;99.90;;;;;;4963007;28;20463;-83
2022/10/15 12:35:36;;;;;;;8.80;8.60;;;18.30;99.90;;;;;;4969196;28;20459;-82
2022/10/15 12:38:21;;;;;;;9.57;9.37;;;18.30;99.90;;;;;;4972175;28;20474;-82
2022/10/15 12:40:57;;;;;;;9.40;9.20;;;18.30;99.90;;;;;;4966727;28;20478;-83
2022/10/15 12:43:27;;;;;;;8.60;8.43;;;18.20;1.00;;;;;;4968442;28;20475;-81
2022/10/15 12:45:59;;;;;;;8.83;8.63;;;18.10;1.00;;;;;;4941380;28;20466;-84
2022/10/15 12:48:33;;;;;;;9.00;8.70;;;18.00;1.00;;;;;;4944381;28;20805;-81
2022/10/15 12:51:39;;;;;;;8.87;8.67;;;17.80;1.00;;;;;;4943000;28;20466;-81
2022/10/15 12:54:33;;;;;;;8.23;8.03;;;17.90;1.00;;;;;;4951985;28;20474;-81
2022/10/15 12:57:05;;;;;;;8.37;8.07;;;17.90;99.90;;;;;;4942756;28;20494;-82